createdAt,value
2018-07-17T00:00:48.960Z,9.27
2018-07-17T00:03:17.769Z,9.40
2018-07-17T00:05:46.611Z,10.00
2018-07-17T00:08:15.393Z,10.40
2018-07-17T00:10:43.809Z,9.90
2018-07-17T00:13:12.597Z,11.13
2018-07-17T00:15:41.467Z,10.60
2018-07-17T00:18:10.327Z,11.20
2018-07-17T00:20:39.105Z,11.67
2018-07-17T00:23:07.966Z,12.60
2018-07-17T00:25:36.820Z,11.50
2018-07-17T00:28:05.883Z,11.60
2018-07-17T00:30:34.754Z,11.80
2018-07-17T00:33:03.574Z,11.93
2018-07-17T00:35:32.401Z,12.07
2018-07-17T00:38:01.225Z,12.07
2018-07-17T00:40:30.041Z,13.40
2018-07-17T00:42:59.725Z,13.13
2018-07-17T00:45:28.505Z,12.47
2018-07-17T00:47:57.300Z,13.17
2018-07-17T00:50:26.192Z,13.50
2018-07-17T00:52:55.092Z,12.90
2018-07-17T00:55:23.875Z,13.27
2018-07-17T00:57:52.712Z,13.40
2018-07-17T01:00:25.724Z,13.00
2018-07-17T01:02:59.882Z,13.23
2018-07-17T01:05:33.865Z,13.03
2018-07-17T01:08:07.882Z,12.43
2018-07-17T01:10:41.851Z,12.60
2018-07-17T01:13:14.834Z,11.60
2018-07-17T01:15:43.802Z,10.23
2018-07-17T01:18:12.603Z,9.90
2018-07-17T01:20:41.415Z,9.80
2018-07-17T01:23:10.248Z,9.60
2018-07-17T01:25:39.034Z,9.20
2018-07-17T01:28:07.881Z,9.50
2018-07-17T01:30:36.751Z,9.77
2018-07-17T01:33:05.533Z,8.67
2018-07-17T01:35:34.324Z,9.50
2018-07-17T01:38:03.326Z,9.23
2018-07-17T01:40:32.105Z,9.23
2018-07-17T01:43:00.899Z,9.90
2018-07-17T01:45:29.766Z,10.07
2018-07-17T01:47:58.571Z,9.70
2018-07-17T01:50:27.334Z,9.40
2018-07-17T01:52:56.225Z,9.50
2018-07-17T01:55:25.072Z,9.53
2018-07-17T01:57:53.923Z,17.67
2018-07-17T02:00:22.748Z,10.03
2018-07-17T02:02:51.537Z,9.93
2018-07-17T02:05:20.406Z,10.23
2018-07-17T02:07:49.278Z,11.37
2018-07-17T02:10:18.150Z,10.07
2018-07-17T02:12:46.952Z,10.17
2018-07-17T02:15:15.765Z,9.20
2018-07-17T02:17:44.646Z,8.80
2018-07-17T02:20:13.481Z,10.17
2018-07-17T02:22:42.309Z,9.57
2018-07-17T02:25:11.121Z,10.47
2018-07-17T02:27:39.929Z,9.50
2018-07-17T02:30:08.838Z,9.63
2018-07-17T02:32:37.677Z,9.47
2018-07-17T02:35:06.530Z,9.70
2018-07-17T02:37:35.357Z,9.80
2018-07-17T02:40:04.292Z,9.27
2018-07-17T02:42:33.196Z,8.83
2018-07-17T02:45:02.025Z,9.73
2018-07-17T02:47:30.876Z,9.10
2018-07-17T02:49:59.715Z,9.40
2018-07-17T02:52:28.546Z,9.90
2018-07-17T02:54:57.402Z,9.83
2018-07-17T02:57:26.217Z,9.60
2018-07-17T02:59:55.033Z,9.80
2018-07-17T03:02:23.885Z,9.53
2018-07-17T03:04:52.786Z,23.20
2018-07-17T03:07:21.754Z,10.80
2018-07-17T03:09:50.571Z,11.80
2018-07-17T03:12:19.434Z,10.70
2018-07-17T03:14:48.271Z,10.10
2018-07-17T03:17:17.135Z,11.03
2018-07-17T03:19:46.025Z,11.90
2018-07-17T03:22:14.889Z,11.83
2018-07-17T03:24:43.738Z,13.07
2018-07-17T03:27:12.626Z,11.70
2018-07-17T03:29:41.422Z,24.60
2018-07-17T03:32:10.299Z,17.37
2018-07-17T03:34:39.145Z,14.07
2018-07-17T03:37:08.004Z,12.53
2018-07-17T03:39:36.826Z,14.90
2018-07-17T03:42:05.604Z,12.63
2018-07-17T03:44:34.455Z,11.67
2018-07-17T03:47:03.327Z,12.77
2018-07-17T03:49:32.195Z,12.53
2018-07-17T03:52:01.018Z,11.60
2018-07-17T03:54:29.877Z,11.87
2018-07-17T03:56:58.728Z,13.10
2018-07-17T03:59:27.563Z,11.90
2018-07-17T04:01:56.345Z,12.07
2018-07-17T04:04:25.215Z,11.67
2018-07-17T04:06:53.972Z,12.90
2018-07-17T04:09:22.850Z,12.70
2018-07-17T04:11:51.670Z,13.70
2018-07-17T04:14:20.780Z,12.83
2018-07-17T04:16:54.322Z,17.50
2018-07-17T04:19:23.994Z,13.70
2018-07-17T04:21:52.904Z,13.30
2018-07-17T04:24:22.960Z,12.73
2018-07-17T04:26:52.090Z,12.03
2018-07-17T04:29:21.034Z,11.60
2018-07-17T04:31:49.519Z,11.57
2018-07-17T04:34:18.360Z,13.40
2018-07-17T04:36:47.217Z,11.97
2018-07-17T04:39:16.011Z,12.23
2018-07-17T04:41:44.843Z,13.90
2018-07-17T04:44:13.620Z,13.07
2018-07-17T04:46:42.439Z,12.80
2018-07-17T04:49:11.407Z,12.30
2018-07-17T04:51:40.211Z,12.70
2018-07-17T04:54:09.101Z,12.23
2018-07-17T04:56:37.954Z,13.50
2018-07-17T04:59:06.753Z,13.63
2018-07-17T05:01:35.623Z,12.90
2018-07-17T05:04:04.489Z,13.30
2018-07-17T05:06:33.410Z,12.20
2018-07-17T05:09:02.243Z,12.87
2018-07-17T05:11:31.130Z,13.07
2018-07-17T05:14:00.046Z,13.67
2018-07-17T05:16:28.890Z,14.90
2018-07-17T05:18:57.752Z,13.10
2018-07-17T05:21:26.550Z,12.10
2018-07-17T05:23:55.405Z,11.87
2018-07-17T05:26:24.204Z,12.50
2018-07-17T05:28:53.072Z,12.87
2018-07-17T05:31:21.924Z,12.10
2018-07-17T05:33:50.729Z,12.20
2018-07-17T05:36:19.612Z,11.60
2018-07-17T05:38:48.431Z,12.03
2018-07-17T05:41:17.252Z,12.73
2018-07-17T05:43:46.096Z,11.30
2018-07-17T05:46:15.067Z,13.33
2018-07-17T05:48:44.036Z,12.10
2018-07-17T05:51:12.875Z,11.90
2018-07-17T05:53:41.682Z,13.83
2018-07-17T05:56:10.575Z,11.50
2018-07-17T05:58:38.977Z,11.63
2018-07-17T06:01:07.443Z,11.47
2018-07-17T06:03:36.303Z,11.80
2018-07-17T06:06:05.145Z,11.20
2018-07-17T06:08:33.945Z,11.00
2018-07-17T06:11:02.817Z,11.30
2018-07-17T06:13:31.624Z,11.23
2018-07-17T06:16:00.470Z,11.53
2018-07-17T06:18:29.339Z,11.30
2018-07-17T06:20:58.213Z,12.37
2018-07-17T06:23:27.097Z,11.60
2018-07-17T06:25:55.946Z,11.30
2018-07-17T06:28:24.764Z,11.73
2018-07-17T06:30:53.604Z,10.40
2018-07-17T06:33:22.439Z,11.63
2018-07-17T06:35:51.281Z,12.10
2018-07-17T06:38:20.099Z,11.13
2018-07-17T06:40:48.982Z,10.90
2018-07-17T06:43:17.802Z,11.73
2018-07-17T06:45:46.672Z,10.63
2018-07-17T06:48:15.522Z,10.80
2018-07-17T06:50:44.423Z,11.93
2018-07-17T06:53:13.236Z,10.53
2018-07-17T06:55:42.143Z,11.57
2018-07-17T06:58:10.972Z,11.07
2018-07-17T07:00:39.810Z,12.47
2018-07-17T07:03:08.639Z,12.30
2018-07-17T07:05:37.017Z,14.30
2018-07-17T07:08:05.907Z,15.30
2018-07-17T07:10:34.761Z,12.87
2018-07-17T07:13:03.694Z,16.30
2018-07-17T07:15:32.577Z,12.80
2018-07-17T07:18:01.360Z,13.40
2018-07-17T07:20:30.163Z,14.93
2018-07-17T07:22:59.030Z,15.70
2018-07-17T07:25:27.924Z,13.60
2018-07-17T07:27:56.770Z,14.00
2018-07-17T07:30:25.554Z,14.27
2018-07-17T07:32:54.419Z,14.90
2018-07-17T07:35:26.107Z,14.13
2018-07-17T07:37:54.884Z,17.77
2018-07-17T07:40:23.722Z,14.83
2018-07-17T07:42:52.666Z,15.50
2018-07-17T07:45:21.514Z,14.53
2018-07-17T07:47:50.354Z,17.60
2018-07-17T07:50:18.736Z,14.90
2018-07-17T07:52:47.566Z,16.03
2018-07-17T07:55:16.474Z,18.13
2018-07-17T07:57:45.287Z,17.67
2018-07-17T08:00:14.126Z,17.30
2018-07-17T08:02:42.950Z,19.20
2018-07-17T08:05:11.789Z,19.07
2018-07-17T08:07:40.583Z,21.73
2018-07-17T08:10:09.498Z,18.87
2018-07-17T08:12:38.369Z,17.20
2018-07-17T08:15:07.306Z,19.10
2018-07-17T08:17:36.321Z,20.57
2018-07-17T08:20:05.134Z,16.93
2018-07-17T08:22:33.992Z,17.87
2018-07-17T08:25:02.883Z,15.67
2018-07-17T08:27:31.761Z,14.60
2018-07-17T08:30:00.160Z,13.77
2018-07-17T08:32:29.991Z,13.60
2018-07-17T08:34:58.867Z,14.50
2018-07-17T08:37:27.767Z,18.50
2018-07-17T08:39:56.164Z,16.67
2018-07-17T08:42:25.019Z,15.30
2018-07-17T08:44:53.829Z,15.00
2018-07-17T08:47:22.783Z,13.90
2018-07-17T08:49:51.912Z,14.27
2018-07-17T08:52:20.707Z,15.63
2018-07-17T08:54:49.522Z,14.90
2018-07-17T08:57:18.437Z,14.10
2018-07-17T08:59:47.296Z,13.20
2018-07-17T09:02:16.262Z,14.30
2018-07-17T09:04:45.126Z,12.90
2018-07-17T09:07:13.934Z,12.33
2018-07-17T09:09:42.848Z,11.03
2018-07-17T09:12:11.678Z,11.37
2018-07-17T09:14:40.576Z,9.97
2018-07-17T09:17:08.994Z,10.10
2018-07-17T09:19:38.004Z,10.00
2018-07-17T09:22:07.073Z,11.13
2018-07-17T09:24:36.044Z,11.47
2018-07-17T09:27:04.929Z,11.63
2018-07-17T09:29:33.790Z,13.97
2018-07-17T09:32:02.713Z,12.37
2018-07-17T09:34:31.502Z,12.30
2018-07-17T09:37:00.394Z,12.27
2018-07-17T09:39:29.266Z,12.70
2018-07-17T09:41:58.063Z,13.80
2018-07-17T09:44:26.927Z,13.73
2018-07-17T09:46:55.757Z,14.23
2018-07-17T09:49:24.620Z,13.30
2018-07-17T09:51:53.455Z,13.03
2018-07-17T09:54:22.303Z,11.60
2018-07-17T09:56:51.112Z,12.87
2018-07-17T09:59:19.969Z,11.33
2018-07-17T10:01:54.064Z,11.03
2018-07-17T10:04:22.930Z,11.37
2018-07-17T10:06:51.750Z,10.37
2018-07-17T10:09:20.545Z,10.10
2018-07-17T10:11:49.034Z,9.13
2018-07-17T10:14:17.829Z,8.70
2018-07-17T10:16:46.726Z,8.00
2018-07-17T10:19:15.530Z,7.10
2018-07-17T10:21:44.383Z,8.77
2018-07-17T10:24:13.174Z,9.43
2018-07-17T10:26:42.080Z,10.10
2018-07-17T10:29:10.886Z,10.77
2018-07-17T10:31:39.779Z,12.27
2018-07-17T10:34:08.623Z,9.17
2018-07-17T10:36:37.450Z,9.43
2018-07-17T10:39:08.381Z,9.03
2018-07-17T10:41:37.608Z,9.10
2018-07-17T10:44:06.717Z,8.90
2018-07-17T10:46:35.613Z,8.30
2018-07-17T10:49:04.445Z,8.50
2018-07-17T10:51:33.315Z,9.10
2018-07-17T10:54:02.307Z,9.13
2018-07-17T10:56:31.136Z,9.70
2018-07-17T10:59:00.317Z,8.50
2018-07-17T11:01:29.117Z,9.10
2018-07-17T11:03:57.978Z,8.73
2018-07-17T11:06:26.871Z,9.10
2018-07-17T11:08:55.244Z,11.27
2018-07-17T11:11:24.097Z,17.13
2018-07-17T11:13:52.890Z,18.90
2018-07-17T11:16:21.829Z,11.83
2018-07-17T11:18:50.677Z,10.57
2018-07-17T11:21:19.553Z,9.33
2018-07-17T11:23:47.994Z,9.20
2018-07-17T11:26:16.876Z,9.23
2018-07-17T11:28:45.699Z,8.90
2018-07-17T11:31:14.559Z,8.03
2018-07-17T11:33:43.448Z,8.13
2018-07-17T11:36:12.282Z,8.60
2018-07-17T11:38:41.143Z,9.10
2018-07-17T11:41:09.950Z,8.80
2018-07-17T11:43:38.766Z,8.07
2018-07-17T11:46:07.684Z,8.90
2018-07-17T11:48:36.515Z,9.67
2018-07-17T11:51:05.421Z,8.80
2018-07-17T11:53:34.272Z,8.03
2018-07-17T11:56:03.133Z,8.20
2018-07-17T11:58:32.013Z,8.47
2018-07-17T12:01:00.845Z,9.30
2018-07-17T12:03:29.707Z,10.10
2018-07-17T12:05:58.613Z,9.90
2018-07-17T12:08:27.361Z,9.30
2018-07-17T12:10:56.177Z,8.53
2018-07-17T12:13:25.033Z,8.40
2018-07-17T12:15:53.876Z,9.20
2018-07-17T12:18:22.716Z,9.33
2018-07-17T12:20:51.594Z,9.87
2018-07-17T12:23:20.449Z,10.17
2018-07-17T12:25:49.269Z,9.23
2018-07-17T12:28:18.126Z,9.10
2018-07-17T12:30:46.960Z,9.67
2018-07-17T12:33:15.398Z,9.23
2018-07-17T12:35:44.234Z,9.97
2018-07-17T12:38:13.119Z,9.30
2018-07-17T12:40:41.949Z,8.13
2018-07-17T12:43:10.800Z,9.00
2018-07-17T12:45:39.213Z,8.40
2018-07-17T12:48:08.114Z,8.00
2018-07-17T12:50:36.902Z,7.93
2018-07-17T12:53:05.721Z,8.63
2018-07-17T12:55:34.612Z,9.60
2018-07-17T12:58:03.476Z,8.73
2018-07-17T13:00:32.422Z,8.67
2018-07-17T13:03:01.247Z,7.27
2018-07-17T13:05:30.112Z,8.10
2018-07-17T13:07:58.970Z,11.60
2018-07-17T13:10:27.783Z,7.03
2018-07-17T13:12:56.605Z,8.10
2018-07-17T13:15:25.481Z,6.90
2018-07-17T13:17:54.071Z,7.03
2018-07-17T13:20:22.392Z,7.17
2018-07-17T13:22:50.779Z,6.80
2018-07-17T13:25:19.635Z,6.03
2018-07-17T13:27:48.477Z,5.03
2018-07-17T13:30:17.405Z,6.70
2018-07-17T13:32:46.275Z,6.10
2018-07-17T13:35:15.137Z,5.37
2018-07-17T13:37:44.077Z,5.60
2018-07-17T13:40:12.928Z,4.60
2018-07-17T13:42:41.762Z,5.43
2018-07-17T13:45:10.720Z,5.00
2018-07-17T13:47:39.517Z,5.37
2018-07-17T13:50:08.529Z,5.20
2018-07-17T13:52:37.420Z,5.50
2018-07-17T13:55:06.404Z,5.50
2018-07-17T13:57:35.181Z,5.20
2018-07-17T14:00:04.653Z,5.57
2018-07-17T14:02:33.438Z,5.27
2018-07-17T14:05:02.287Z,5.30
2018-07-17T14:07:31.125Z,5.00
2018-07-17T14:09:59.975Z,4.70
2018-07-17T14:12:28.861Z,4.80
2018-07-17T14:14:57.674Z,6.20
2018-07-17T14:17:26.586Z,5.17
2018-07-17T14:19:55.388Z,6.00
2018-07-17T14:22:24.242Z,4.73
2018-07-17T14:24:53.085Z,5.03
2018-07-17T14:27:21.992Z,5.00
2018-07-17T14:29:50.830Z,5.17
2018-07-17T14:32:19.678Z,5.83
2018-07-17T14:34:48.563Z,5.57
2018-07-17T14:37:17.519Z,4.97
2018-07-17T14:39:46.382Z,5.40
2018-07-17T14:42:16.269Z,5.13
2018-07-17T14:44:45.157Z,5.50
2018-07-17T14:47:13.988Z,5.63
2018-07-17T14:49:42.927Z,6.73
2018-07-17T14:52:12.111Z,4.93
2018-07-17T14:54:40.925Z,5.90
2018-07-17T14:57:09.819Z,6.03
2018-07-17T14:59:38.645Z,4.23
2018-07-17T15:02:12.478Z,4.70
2018-07-17T15:04:41.275Z,4.03
2018-07-17T15:07:10.122Z,3.13
2018-07-17T15:09:39.022Z,3.57
2018-07-17T15:12:07.885Z,3.70
2018-07-17T15:14:36.726Z,3.37
2018-07-17T15:17:05.726Z,3.93
2018-07-17T15:19:34.547Z,4.70
2018-07-17T15:22:03.470Z,2.97
2018-07-17T15:24:32.353Z,4.20
2018-07-17T15:27:01.152Z,2.83
2018-07-17T15:29:29.976Z,3.50
2018-07-17T15:31:58.856Z,5.70
2018-07-17T15:34:27.731Z,2.70
2018-07-17T15:36:56.553Z,3.23
2018-07-17T15:39:25.396Z,3.70
2018-07-17T15:41:54.210Z,3.73
2018-07-17T15:44:22.993Z,3.60
2018-07-17T15:46:51.831Z,4.70
2018-07-17T15:49:20.657Z,3.27
2018-07-17T15:51:49.493Z,4.13
2018-07-17T15:54:18.340Z,4.07
2018-07-17T15:56:47.221Z,3.90
2018-07-17T15:59:16.164Z,4.80
2018-07-17T16:01:45.332Z,4.50
2018-07-17T16:04:14.226Z,4.13
2018-07-17T16:06:43.029Z,3.67
2018-07-17T16:09:11.851Z,3.93
2018-07-17T16:11:40.757Z,3.83
2018-07-17T16:14:09.788Z,4.13
2018-07-17T16:16:38.495Z,4.70
2018-07-17T16:19:07.330Z,4.90
2018-07-17T16:21:36.187Z,4.40
2018-07-17T16:24:04.618Z,4.13
2018-07-17T16:26:33.529Z,4.10
2018-07-17T16:29:02.351Z,4.60
2018-07-17T16:31:31.189Z,4.27
2018-07-17T16:33:59.559Z,4.63
2018-07-17T16:36:28.363Z,4.40
2018-07-17T16:38:57.234Z,4.13
2018-07-17T16:41:26.120Z,4.33
2018-07-17T16:43:54.521Z,4.33
2018-07-17T16:46:23.399Z,3.20
2018-07-17T16:48:52.327Z,3.50
2018-07-17T16:51:21.167Z,3.70
2018-07-17T16:53:50.006Z,3.70
2018-07-17T16:56:18.841Z,4.20
2018-07-17T16:58:47.686Z,3.90
2018-07-17T17:01:16.683Z,3.90
2018-07-17T17:03:45.394Z,4.00
2018-07-17T17:06:14.205Z,3.80
2018-07-17T17:08:43.064Z,3.80
2018-07-17T17:11:11.945Z,4.20
2018-07-17T17:13:40.717Z,4.40
2018-07-17T17:16:09.637Z,4.17
2018-07-17T17:18:39.427Z,19.53
2018-07-17T17:21:08.245Z,4.57
2018-07-17T17:23:36.699Z,4.60
2018-07-17T17:26:05.546Z,4.20
2018-07-17T17:28:34.352Z,4.23
2018-07-17T17:31:03.214Z,5.13
2018-07-17T17:33:32.070Z,4.97
2018-07-17T17:36:00.931Z,4.27
2018-07-17T17:38:29.758Z,4.80
2018-07-17T17:40:58.586Z,4.33
2018-07-17T17:43:27.444Z,4.97
2018-07-17T17:45:56.310Z,5.13
2018-07-17T17:48:25.120Z,4.43
2018-07-17T17:50:54.067Z,6.70
2018-07-17T17:53:22.902Z,5.00
2018-07-17T17:55:51.767Z,5.07
2018-07-17T17:58:20.586Z,5.60
2018-07-17T18:00:49.861Z,6.53
2018-07-17T18:03:18.675Z,4.90
2018-07-17T18:05:47.550Z,6.20
2018-07-17T18:08:16.563Z,6.27
2018-07-17T18:10:45.408Z,6.70
2018-07-17T18:15:41.423Z,6.20
2018-07-17T18:18:10.303Z,12.13
2018-07-17T18:20:39.138Z,6.20
2018-07-17T18:23:08.410Z,6.50
2018-07-17T18:25:37.258Z,7.50
2018-07-17T18:28:06.106Z,5.67
2018-07-17T18:30:35.015Z,6.37
2018-07-17T18:33:03.888Z,6.50
2018-07-17T18:35:32.860Z,6.90
2018-07-17T18:38:01.303Z,6.50
2018-07-17T18:40:29.688Z,8.20
2018-07-17T18:42:58.509Z,6.43
2018-07-17T18:45:27.385Z,7.00
2018-07-17T18:47:55.843Z,7.80
2018-07-17T18:50:24.754Z,7.20
2018-07-17T18:52:53.534Z,7.07
2018-07-17T18:55:21.981Z,6.60
2018-07-17T18:57:50.910Z,6.13
2018-07-17T19:00:19.744Z,5.60
2018-07-17T19:02:48.617Z,6.23
2018-07-17T19:05:17.587Z,6.20
2018-07-17T19:07:46.524Z,5.70
2018-07-17T19:10:15.615Z,6.40
2018-07-17T19:12:44.451Z,7.33
2018-07-17T19:15:13.324Z,7.07
2018-07-17T19:17:42.233Z,7.03
2018-07-17T19:20:11.236Z,7.83
2018-07-17T19:22:40.275Z,9.00
2018-07-17T19:25:09.280Z,8.40
2018-07-17T19:27:38.173Z,9.70
2018-07-17T19:30:07.193Z,8.77
2018-07-17T19:32:36.980Z,8.15
2018-07-17T19:35:05.835Z,8.10
2018-07-17T19:37:34.640Z,8.40
2018-07-17T19:40:03.666Z,7.87
2018-07-17T19:42:32.523Z,8.43
2018-07-17T19:45:01.383Z,7.40
2018-07-17T19:47:30.344Z,8.40
2018-07-17T19:49:59.247Z,8.23
2018-07-17T19:52:28.103Z,7.40
2018-07-17T19:54:56.979Z,7.00
2018-07-17T19:57:25.402Z,7.87
2018-07-17T19:59:54.215Z,8.50
2018-07-17T20:02:23.086Z,7.40
2018-07-17T20:04:51.902Z,7.70
2018-07-17T20:07:20.457Z,7.40
2018-07-17T20:09:49.253Z,9.03
2018-07-17T20:12:18.141Z,7.50
2018-07-17T20:14:46.991Z,9.40
2018-07-17T20:17:15.869Z,7.87
2018-07-17T20:19:44.708Z,8.20
2018-07-17T20:22:13.530Z,8.97
2018-07-17T20:24:42.404Z,9.97
2018-07-17T20:27:11.225Z,9.10
2018-07-17T20:29:40.044Z,8.93
2018-07-17T20:32:08.903Z,8.07
2018-07-17T20:34:37.707Z,9.60
2018-07-17T20:37:06.682Z,10.83
2018-07-17T20:39:35.508Z,9.23
2018-07-17T20:42:04.394Z,10.97
2018-07-17T20:44:33.224Z,15.17
2018-07-17T20:47:02.114Z,12.27
2018-07-17T20:49:30.969Z,17.43
2018-07-17T20:51:59.859Z,11.80
2018-07-17T20:54:28.708Z,14.37
2018-07-17T20:56:57.520Z,14.13
2018-07-17T20:59:26.452Z,12.00
2018-07-17T21:01:55.365Z,12.23
2018-07-17T21:04:24.201Z,14.80
2018-07-17T21:06:53.107Z,13.50
2018-07-17T21:09:21.999Z,13.60
2018-07-17T21:11:50.867Z,13.33
2018-07-17T21:14:19.791Z,13.33
2018-07-17T21:16:48.667Z,18.10
2018-07-17T21:19:17.170Z,16.17
2018-07-17T21:21:46.040Z,18.70
2018-07-17T21:24:14.903Z,18.07
2018-07-17T21:26:43.722Z,20.27
2018-07-17T21:29:12.616Z,19.30
2018-07-17T21:31:41.494Z,21.33
2018-07-17T21:34:10.394Z,20.53
2018-07-17T21:36:39.248Z,20.80
2018-07-17T21:39:09.816Z,20.40
2018-07-17T21:41:38.652Z,18.37
2018-07-17T21:44:07.533Z,21.70
2018-07-17T21:46:36.400Z,22.73
2018-07-17T21:49:05.324Z,21.10
2018-07-17T21:51:34.224Z,19.57
2018-07-17T21:54:03.093Z,18.60
2018-07-17T21:56:31.960Z,19.43
2018-07-17T21:59:00.830Z,21.27
2018-07-17T22:01:29.754Z,19.57
2018-07-17T22:03:58.611Z,20.23
2018-07-17T22:06:27.502Z,20.87
2018-07-17T22:08:56.423Z,22.10
2018-07-17T22:11:25.295Z,21.23
2018-07-17T22:13:54.151Z,21.13
2018-07-17T22:16:23.027Z,22.93
2018-07-17T22:18:51.859Z,21.47
2018-07-17T22:21:20.719Z,23.63
2018-07-17T22:23:49.579Z,22.83
2018-07-17T22:26:18.446Z,23.03
2018-07-17T22:28:47.341Z,24.47
2018-07-17T22:31:16.231Z,23.97
2018-07-17T22:33:45.127Z,22.70
2018-07-17T22:36:13.569Z,23.50
2018-07-17T22:38:42.440Z,23.77
2018-07-17T22:41:11.335Z,22.67
2018-07-17T22:43:40.199Z,23.90
2018-07-17T22:46:09.087Z,24.33
2018-07-17T22:48:37.892Z,24.40
2018-07-17T22:51:07.070Z,24.23
2018-07-17T22:53:35.995Z,22.77
2018-07-17T22:56:04.403Z,26.13
2018-07-17T22:58:33.291Z,24.13
2018-07-17T23:01:02.362Z,23.57
2018-07-17T23:03:31.642Z,23.93
2018-07-17T23:06:00.459Z,24.93
2018-07-17T23:08:29.421Z,24.20
2018-07-17T23:10:58.337Z,25.30
2018-07-17T23:13:27.227Z,21.90
2018-07-17T23:15:56.120Z,25.33
2018-07-17T23:18:24.967Z,23.93
2018-07-17T23:20:53.866Z,25.10
2018-07-17T23:23:22.694Z,24.27
2018-07-17T23:25:51.572Z,25.60
2018-07-17T23:28:20.422Z,24.30
2018-07-17T23:30:49.308Z,24.27
2018-07-17T23:33:18.157Z,26.23
2018-07-17T23:35:46.990Z,25.73
2018-07-17T23:38:15.850Z,24.57
2018-07-17T23:40:44.692Z,25.87
2018-07-17T23:43:13.562Z,24.70
2018-07-17T23:45:42.374Z,24.67
2018-07-17T23:48:11.210Z,25.07
2018-07-17T23:50:40.035Z,25.13
2018-07-17T23:53:08.920Z,24.97
2018-07-17T23:55:37.785Z,24.77
2018-07-17T23:58:06.662Z,23.80
